createdAt,value
2022-07-31T00:04:24.384Z,109.48
2022-07-31T00:19:24.247Z,125.28
2022-07-31T00:34:24.219Z,129.70
2022-07-31T00:49:24.222Z,118.99
2022-07-31T01:04:24.314Z,112.72
2022-07-31T01:19:24.153Z,122.78
2022-07-31T01:34:24.213Z,134.03
2022-07-31T01:49:24.456Z,135.00
2022-07-31T02:04:24.299Z,201.24
2022-07-31T02:19:24.535Z,225.00
2022-07-31T02:34:30.010Z,154.11
2022-07-31T02:49:24.520Z,127.19
2022-07-31T03:04:24.595Z,137.90
2022-07-31T03:19:24.478Z,131.72
2022-07-31T03:34:24.512Z,203.91
2022-07-31T03:49:24.562Z,163.69
2022-07-31T04:04:28.934Z,199.10
2022-07-31T04:19:24.696Z,195.58
2022-07-31T04:34:24.667Z,203.90
2022-07-31T04:49:25.221Z,203.72
2022-07-31T05:04:25.086Z,217.53
2022-07-31T05:19:24.829Z,213.84
2022-07-31T05:34:24.793Z,213.53
2022-07-31T05:49:25.072Z,150.56
2022-07-31T06:04:24.915Z,229.27
2022-07-31T06:19:24.974Z,228.06
2022-07-31T06:34:25.022Z,220.33
2022-07-31T06:49:25.047Z,220.45
2022-07-31T07:04:24.944Z,228.69
2022-07-31T07:19:24.932Z,233.33
2022-07-31T07:34:25.076Z,235.35
2022-07-31T07:49:25.049Z,222.48
2022-07-31T08:04:25.112Z,220.85
2022-07-31T08:19:25.245Z,235.68
2022-07-31T08:34:31.500Z,227.95
2022-07-31T08:49:25.460Z,207.61
2022-07-31T09:04:25.053Z,272.65
2022-07-31T09:19:52.454Z,262.51
2022-07-31T09:34:25.397Z,260.70
2022-07-31T09:49:25.392Z,246.50
2022-07-31T10:04:25.428Z,232.34
2022-07-31T10:19:25.418Z,259.72
2022-07-31T10:34:25.571Z,246.20
2022-07-31T10:49:25.438Z,267.34
2022-07-31T11:04:25.625Z,269.76
2022-07-31T11:19:25.482Z,247.64
2022-07-31T11:34:25.538Z,255.39
2022-07-31T11:49:44.112Z,261.08
2022-07-31T12:04:25.828Z,256.31
2022-07-31T12:19:26.041Z,271.39
2022-07-31T12:34:25.863Z,263.82
2022-07-31T12:49:25.976Z,269.01
2022-07-31T13:04:26.046Z,274.27
2022-07-31T13:19:26.920Z,262.76
2022-07-31T13:34:29.550Z,263.71
2022-07-31T13:49:25.970Z,273.52
2022-07-31T14:04:26.060Z,273.61
2022-07-31T14:19:26.117Z,269.73
2022-07-31T14:34:35.252Z,253.49
2022-07-31T14:49:26.376Z,278.92
2022-07-31T15:04:26.301Z,260.97
2022-07-31T15:19:26.355Z,255.94
2022-07-31T15:34:27.158Z,261.28
2022-07-31T15:49:26.226Z,249.94
2022-07-31T16:04:26.432Z,260.15
2022-07-31T16:19:26.816Z,252.38
2022-07-31T16:34:26.664Z,255.85
2022-07-31T16:49:36.377Z,259.83
2022-07-31T17:04:26.422Z,276.58
2022-07-31T17:19:41.138Z,255.89
2022-07-31T17:34:26.504Z,255.81
2022-07-31T17:49:26.730Z,221.79
2022-07-31T18:04:26.631Z,238.28
2022-07-31T18:19:26.782Z,254.02
2022-07-31T18:34:26.667Z,270.41
2022-07-31T18:50:59.944Z,289.06
2022-07-31T19:04:26.970Z,286.83
2022-07-31T19:19:38.281Z,277.12
2022-07-31T19:34:27.018Z,281.82
2022-07-31T19:49:26.990Z,276.25
2022-07-31T20:04:26.941Z,269.06
2022-07-31T20:19:27.015Z,249.98
2022-07-31T20:34:27.107Z,297.88
2022-07-31T20:49:34.945Z,251.47
2022-07-31T21:04:27.438Z,256.28
2022-07-31T21:19:27.049Z,251.41
2022-07-31T21:34:27.141Z,258.17
2022-07-31T21:49:27.367Z,279.25
2022-07-31T22:04:32.175Z,262.29
2022-07-31T22:19:27.450Z,267.53
2022-07-31T22:34:37.508Z,258.61
2022-07-31T22:49:27.546Z,244.90
2022-07-31T23:04:27.576Z,247.74
2022-07-31T23:19:27.415Z,248.36
2022-07-31T23:34:27.459Z,238.10
2022-07-31T23:49:27.680Z,229.92
